Weather at Semantan Airport

Public forecast

Using degrees Celsius for public forecast. Weather courtesy of forecast.io.

Closest aviation weather report (METAR) to Semantan Airport

Closest report is Kuantan Airport, 52.9 nm (97.9 km) ENE.

2024/05/19 23:00 (retrieved 1 hour ago)

WMKD 192300Z VRB02KT 9999 FEW025 26/25 Q1006 NOSIG

Closest aviation forecast (TAF) to Semantan Airport

Forecast is more than 6 hours old.

Closest forecast is Aden Adde International Airport, 3,423.4 nm (6,340.2 km) W.

2024/05/19 12:54 (retrieved 11 hours ago)

TAF TAF HCMM 191100Z 1912/2018 20015KT 9999 FEW026 BECMG 1923/2002 21010KT SCT020 SCT020 BECMG 2008/2011 22015KT FEW025 SCT090